National Weather Service United States Department of Commerce
Click Here for Latest Airport Weather Warnings
 
Latest Huntsville TAF


108
FTUS44 KHUN 160520
TAFHSV
TAF
KHSV 160520Z 1606/1706 02009KT P6SM OVC008
FM161500 36007KT P6SM -RA OVC008
FM170100 02005KT P6SM SCT015 BKN025 OVC080=

Latest Muscle Shoals TAF


000
FTUS44 KHUN 160520
TAFMSL
TAF
KMSL 160520Z 1606/1706 02009KT P6SM OVC008
FM161400 36007KT P6SM -RA OVC008
FM170000 02005KT P6SM SCT015 BKN025 OVC080=

 

Back to Main Huntsville Weather Forecast Office Page